Time;durP1;ratioP1;P1;durP2;ratioP2;P2;SDS_P1;SDS_P2;PMS_P1;PMS_P2;Temp;Humidity;BMP_temperature;BMP_pressure;BME280_temperature;BME280_humidity;BME280_pressure;Samples;Min_cycle;Max_cycle;Signal;HPM_P1;HPM_P2
2023/09/09 00:02:10;;;;;;;2.08;1.98;;;;;;;;;;5035070;28;20049;-81
2023/09/09 00:04:36;;;;;;;2.10;2.00;;;;;;;;;;5034477;28;20018;-80
2023/09/09 00:07:03;;;;;;;2.42;2.22;;;;;;;;;;5034754;28;20026;-80
2023/09/09 00:09:32;;;;;;;2.17;2.08;;;;;;;;;;5034490;28;20033;-80
2023/09/09 00:11:58;;;;;;;1.88;1.77;;;;;;;;;;5033993;28;20034;-79
2023/09/09 00:14:25;;;;;;;2.10;2.00;;;;;;;;;;5036050;28;20026;-80
2023/09/09 00:16:52;;;;;;;1.92;1.83;;;;;;;;;;5054926;28;20068;-80
2023/09/09 00:19:21;;;;;;;2.40;2.22;;;;;;;;;;5055071;28;20012;-80
2023/09/09 00:21:47;;;;;;;2.10;2.00;;;;;;;;;;5054594;28;20017;-80
2023/09/09 00:24:13;;;;;;;2.50;2.30;;;;;;;;;;5055044;28;20021;-81
2023/09/09 00:26:39;;;;;;;2.40;2.22;;;;;;;;;;5045571;28;20022;-80
2023/09/09 00:29:06;;;;;;;2.30;2.20;;;;;;;;;;5050720;28;20024;-79
2023/09/09 00:31:32;;;;;;;2.10;2.00;;;;;;;;;;5053435;28;20056;-81
2023/09/09 00:33:58;;;;;;;2.35;2.17;;;;;;;;;;5052943;28;20042;-82
2023/09/09 00:39:03;;;;;;;2.08;1.98;;;;;;;;;;5768783;22;25146;-81
2023/09/09 00:41:29;;;;;;;2.47;2.28;;;;;;;;;;4986510;28;20074;-81
2023/09/09 00:43:55;;;;;;;2.20;2.10;;;;;;;;;;4978502;28;20035;-81
2023/09/09 00:46:21;;;;;;;2.58;2.35;;;;;;;;;;4983688;28;20062;-79
2023/09/09 00:48:47;;;;;;;2.40;2.22;;;;;;;;;;4984638;28;20034;-79
2023/09/09 00:51:13;;;;;;;1.83;1.73;;;;;;;;;;4999715;28;20026;-78
2023/09/09 00:53:40;;;;;;;2.33;2.22;;;;;;;;;;5001823;28;20026;-78
2023/09/09 00:56:06;;;;;;;2.08;1.98;;;;;;;;;;5001803;28;20026;-78
2023/09/09 00:58:32;;;;;;;2.47;2.28;;;;;;;;;;5000869;28;20027;-78
2023/09/09 01:00:59;;;;;;;1.90;1.80;;;;;;;;;;5002251;28;20073;-80
2023/09/09 01:03:25;;;;;;;2.42;2.22;;;;;;;;;;5003560;28;20413;-79
2023/09/09 01:05:52;;;;;;;2.30;2.15;;;;;;;;;;5001447;28;20026;-79
2023/09/09 01:08:25;;;;;;;2.28;2.17;;;;;;;;;;5000954;28;20046;-79
2023/09/09 01:10:51;;;;;;;2.53;2.33;;;;;;;;;;4997495;28;20034;-80
2023/09/09 01:13:17;;;;;;;2.42;2.33;;;;;;;;;;4994842;28;20041;-80
2023/09/09 01:15:43;;;;;;;2.50;2.30;;;;;;;;;;4988702;28;20034;-80
2023/09/09 01:18:09;;;;;;;2.92;2.72;;;;;;;;;;4982932;28;20050;-80
2023/09/09 01:20:37;;;;;;;3.03;2.83;;;;;;;;;;5013706;28;20509;-80
2023/09/09 01:23:04;;;;;;;2.30;2.20;;;;;;;;;;5002859;28;20018;-80
2023/09/09 01:25:30;;;;;;;2.38;2.20;;;;;;;;;;5002993;28;20128;-80
2023/09/09 01:27:56;;;;;;;2.42;2.30;;;;;;;;;;5001423;28;20094;-80
2023/09/09 01:30:22;;;;;;;2.22;2.13;;;;;;;;;;4988091;28;20039;-80
2023/09/09 01:32:50;;;;;;;2.70;2.50;;;;;;;;;;4983101;28;20018;-80
2023/09/09 01:35:16;;;;;;;2.83;2.63;;;;;;;;;;4981926;28;20378;-80
2023/09/09 01:37:42;;;;;;;2.40;2.25;;;;;;;;;;4984644;28;20034;-80
2023/09/09 01:40:12;;;;;;;2.63;2.42;;;;;;;;;;4984472;28;20037;-80
2023/09/09 01:42:38;;;;;;;2.53;2.33;;;;;;;;;;4994447;28;20041;-80
2023/09/09 01:45:04;;;;;;;2.45;2.30;;;;;;;;;;5002434;28;20056;-80
2023/09/09 01:47:31;;;;;;;2.35;2.15;;;;;;;;;;5019132;28;20030;-80
2023/09/09 01:49:57;;;;;;;2.60;2.40;;;;;;;;;;4982251;28;20031;-79
2023/09/09 01:52:23;;;;;;;2.30;2.20;;;;;;;;;;4983031;28;20459;-80
2023/09/09 01:54:49;;;;;;;2.08;1.98;;;;;;;;;;4981902;28;20122;-80
2023/09/09 01:57:19;;;;;;;2.13;2.03;;;;;;;;;;4982324;28;20086;-80
2023/09/09 01:59:45;;;;;;;2.35;2.20;;;;;;;;;;4983830;28;20097;-80
2023/09/09 02:02:15;;;;;;;2.03;1.92;;;;;;;;;;4983651;28;20038;-80
2023/09/09 02:04:42;;;;;;;2.53;2.35;;;;;;;;;;4982327;28;20041;-80
2023/09/09 02:07:08;;;;;;;2.30;2.20;;;;;;;;;;4980587;28;20031;-80
2023/09/09 02:09:34;;;;;;;2.45;2.30;;;;;;;;;;4994154;28;20031;-80
2023/09/09 02:12:03;;;;;;;2.15;2.05;;;;;;;;;;5004595;28;20022;-80
2023/09/09 02:14:29;;;;;;;2.30;2.20;;;;;;;;;;4987430;28;20027;-80
2023/09/09 02:16:55;;;;;;;2.50;2.30;;;;;;;;;;5003615;28;20029;-79
2023/09/09 02:19:21;;;;;;;2.30;2.15;;;;;;;;;;5003351;28;20086;-79
2023/09/09 02:21:47;;;;;;;2.33;2.22;;;;;;;;;;5008749;28;20500;-79
2023/09/09 02:24:13;;;;;;;2.10;2.00;;;;;;;;;;5007657;28;20031;-79
2023/09/09 02:26:40;;;;;;;2.30;2.20;;;;;;;;;;5003628;28;20054;-80
2023/09/09 02:29:06;;;;;;;2.15;2.05;;;;;;;;;;4990542;28;20037;-79
2023/09/09 02:31:32;;;;;;;2.20;2.10;;;;;;;;;;4989509;28;20042;-79
2023/09/09 02:33:58;;;;;;;2.28;2.17;;;;;;;;;;4989378;28;20038;-79
2023/09/09 02:36:24;;;;;;;2.67;2.45;;;;;;;;;;4990303;28;20029;-80
2023/09/09 02:38:50;;;;;;;2.78;2.58;;;;;;;;;;4988909;28;20019;-79
2023/09/09 02:41:16;;;;;;;2.28;2.17;;;;;;;;;;4988496;28;20031;-79
2023/09/09 02:43:42;;;;;;;2.55;2.35;;;;;;;;;;4983850;28;20453;-79
2023/09/09 02:46:08;;;;;;;2.33;2.22;;;;;;;;;;4983842;28;20034;-79
2023/09/09 02:48:35;;;;;;;2.03;1.92;;;;;;;;;;4989430;28;20026;-79
2023/09/09 02:51:04;;;;;;;2.53;2.33;;;;;;;;;;5002850;28;20092;-79
2023/09/09 02:53:30;;;;;;;2.00;1.90;;;;;;;;;;5002315;28;20026;-79
2023/09/09 02:55:56;;;;;;;2.05;1.95;;;;;;;;;;5001784;28;20027;-79
2023/09/09 02:58:22;;;;;;;2.25;2.15;;;;;;;;;;4999021;28;20053;-79
2023/09/09 03:00:48;;;;;;;2.13;2.03;;;;;;;;;;5000383;28;20029;-78
2023/09/09 03:03:20;;;;;;;2.30;2.17;;;;;;;;;;5001145;28;20014;-78
2023/09/09 03:05:46;;;;;;;2.00;1.90;;;;;;;;;;5002098;28;20034;-80
2023/09/09 03:08:12;;;;;;;2.10;2.00;;;;;;;;;;4998063;28;20030;-80
2023/09/09 03:10:38;;;;;;;2.42;2.22;;;;;;;;;;4991321;28;20019;-80
2023/09/09 03:13:04;;;;;;;2.22;2.13;;;;;;;;;;4981727;28;20022;-80
2023/09/09 03:15:31;;;;;;;2.42;2.22;;;;;;;;;;5009191;28;20026;-80
2023/09/09 03:17:57;;;;;;;2.30;2.20;;;;;;;;;;4993555;28;20046;-80
2023/09/09 03:20:23;;;;;;;2.92;2.72;;;;;;;;;;5001188;28;20030;-81
2023/09/09 03:22:49;;;;;;;3.08;2.88;;;;;;;;;;5000796;28;20045;-78
2023/09/09 03:25:15;;;;;;;3.15;2.95;;;;;;;;;;5000747;28;20030;-79
2023/09/09 03:27:41;;;;;;;3.13;2.83;;;;;;;;;;5000191;28;20027;-79
2023/09/09 03:30:09;;;;;;;3.33;3.03;;;;;;;;;;4984014;28;20030;-81
2023/09/09 03:32:35;;;;;;;3.00;2.80;;;;;;;;;;4995182;28;20040;-81
2023/09/09 03:35:01;;;;;;;3.08;2.88;;;;;;;;;;4996518;28;20098;-80
2023/09/09 03:37:27;;;;;;;2.80;2.60;;;;;;;;;;5004760;28;20030;-78
2023/09/09 03:39:53;;;;;;;2.95;2.75;;;;;;;;;;5009950;28;20050;-79
2023/09/09 03:42:19;;;;;;;2.72;2.53;;;;;;;;;;5005235;28;20023;-80
2023/09/09 03:44:45;;;;;;;3.47;3.25;;;;;;;;;;4997886;28;20462;-80
2023/09/09 03:47:11;;;;;;;3.05;2.85;;;;;;;;;;4995601;28;20023;-80
2023/09/09 03:49:37;;;;;;;2.78;2.58;;;;;;;;;;5001089;28;20035;-80
2023/09/09 03:52:03;;;;;;;3.05;2.85;;;;;;;;;;5010207;28;20050;-80
2023/09/09 03:54:30;;;;;;;3.45;3.15;;;;;;;;;;5014563;28;20037;-80
2023/09/09 03:56:56;;;;;;;2.88;2.67;;;;;;;;;;5014967;28;20014;-80
2023/09/09 03:59:22;;;;;;;3.63;3.33;;;;;;;;;;5007828;28;20031;-81
2023/09/09 04:01:48;;;;;;;2.95;2.75;;;;;;;;;;5009905;28;20138;-80
2023/09/09 04:04:15;;;;;;;3.25;3.00;;;;;;;;;;5011395;28;20057;-80
2023/09/09 04:06:41;;;;;;;3.53;3.22;;;;;;;;;;5014200;28;20018;-80
2023/09/09 04:09:07;;;;;;;3.63;3.33;;;;;;;;;;5001721;28;20034;-80
2023/09/09 04:11:33;;;;;;;3.80;3.50;;;;;;;;;;4997510;28;20026;-80
2023/09/09 04:13:59;;;;;;;3.72;3.42;;;;;;;;;;5004247;28;20110;-80
2023/09/09 04:16:25;;;;;;;4.18;3.88;;;;;;;;;;4990779;28;20022;-80
2023/09/09 04:18:51;;;;;;;3.92;3.63;;;;;;;;;;5004060;28;20018;-80
2023/09/09 04:21:17;;;;;;;4.25;3.95;;;;;;;;;;5007839;28;20034;-80
2023/09/09 04:23:43;;;;;;;4.30;3.95;;;;;;;;;;4999281;28;20396;-80
2023/09/09 04:26:09;;;;;;;3.92;3.63;;;;;;;;;;4999388;28;20035;-79
2023/09/09 04:28:36;;;;;;;3.97;3.67;;;;;;;;;;4982252;28;20089;-80
2023/09/09 04:31:02;;;;;;;3.78;3.47;;;;;;;;;;4982744;28;20045;-80
2023/09/09 04:33:28;;;;;;;3.90;3.60;;;;;;;;;;4981415;28;20042;-80
2023/09/09 04:35:54;;;;;;;4.10;3.70;;;;;;;;;;4980773;28;20477;-80
2023/09/09 04:38:22;;;;;;;3.60;3.30;;;;;;;;;;4983873;28;20070;-80
2023/09/09 04:40:49;;;;;;;4.15;3.83;;;;;;;;;;4982912;28;20106;-80
2023/09/09 04:43:15;;;;;;;4.20;3.90;;;;;;;;;;4983625;28;20504;-80
2023/09/09 04:45:42;;;;;;;3.72;3.42;;;;;;;;;;4983103;28;20425;-79
2023/09/09 04:48:10;;;;;;;4.00;3.70;;;;;;;;;;4999155;28;20026;-79
2023/09/09 04:50:36;;;;;;;4.18;3.78;;;;;;;;;;4982976;28;20106;-79
2023/09/09 04:53:02;;;;;;;3.70;3.40;;;;;;;;;;4986976;28;20050;-79
2023/09/09 04:55:28;;;;;;;3.85;3.55;;;;;;;;;;4988112;28;20037;-79
2023/09/09 04:57:54;;;;;;;3.28;3.05;;;;;;;;;;4998013;28;20045;-80
2023/09/09 05:00:20;;;;;;;3.10;2.90;;;;;;;;;;5004057;28;20053;-80
2023/09/09 05:02:46;;;;;;;3.35;3.05;;;;;;;;;;5002612;28;20023;-81
2023/09/09 05:05:12;;;;;;;2.92;2.72;;;;;;;;;;5002372;28;20076;-80
2023/09/09 05:07:39;;;;;;;2.65;2.45;;;;;;;;;;5001912;28;20022;-79
2023/09/09 05:10:05;;;;;;;2.83;2.63;;;;;;;;;;4990021;28;20077;-79
2023/09/09 05:12:32;;;;;;;3.00;2.80;;;;;;;;;;4983675;28;20031;-79
2023/09/09 05:14:58;;;;;;;2.90;2.70;;;;;;;;;;4998256;28;20034;-79
2023/09/09 05:17:24;;;;;;;2.80;2.60;;;;;;;;;;4983969;28;20050;-80
2023/09/09 05:19:50;;;;;;;2.67;2.47;;;;;;;;;;4983294;28;20091;-80
2023/09/09 05:22:16;;;;;;;2.38;2.28;;;;;;;;;;4984824;28;20038;-80
2023/09/09 05:24:43;;;;;;;2.33;2.20;;;;;;;;;;4984099;28;20023;-80
2023/09/09 05:27:09;;;;;;;2.50;2.35;;;;;;;;;;4983887;28;20038;-80
2023/09/09 05:29:35;;;;;;;2.30;2.20;;;;;;;;;;4992877;28;20093;-80
2023/09/09 05:32:01;;;;;;;2.65;2.45;;;;;;;;;;5002848;28;20129;-80
2023/09/09 05:34:27;;;;;;;2.17;2.08;;;;;;;;;;5003331;28;20034;-80
2023/09/09 05:36:53;;;;;;;2.42;2.33;;;;;;;;;;5003688;28;20116;-81
2023/09/09 05:39:19;;;;;;;2.60;2.40;;;;;;;;;;4994459;28;20061;-81
2023/09/09 05:41:45;;;;;;;2.63;2.42;;;;;;;;;;4982870;28;20023;-80
2023/09/09 05:44:11;;;;;;;2.33;2.22;;;;;;;;;;4997628;28;20482;-79
2023/09/09 05:46:37;;;;;;;2.65;2.30;;;;;;;;;;4981280;28;20109;-79
2023/09/09 05:49:03;;;;;;;2.67;2.47;;;;;;;;;;4981089;28;20035;-79
2023/09/09 05:51:29;;;;;;;3.13;2.92;;;;;;;;;;4983000;28;20022;-80
2023/09/09 05:53:55;;;;;;;2.90;2.70;;;;;;;;;;4987865;28;20037;-79
2023/09/09 05:56:21;;;;;;;3.10;2.90;;;;;;;;;;4986844;28;20026;-79
2023/09/09 05:58:47;;;;;;;2.70;2.50;;;;;;;;;;4984107;28;20027;-81
2023/09/09 06:01:14;;;;;;;2.63;2.42;;;;;;;;;;4982586;28;20027;-79
2023/09/09 06:03:40;;;;;;;2.50;2.40;;;;;;;;;;4983165;28;20508;-80
2023/09/09 06:06:06;;;;;;;2.70;2.50;;;;;;;;;;4996960;28;20062;-80
2023/09/09 06:08:32;;;;;;;2.83;2.63;;;;;;;;;;4986439;28;20023;-79
2023/09/09 06:10:59;;;;;;;2.75;2.55;;;;;;;;;;4996924;28;20033;-79
2023/09/09 06:13:25;;;;;;;2.72;2.53;;;;;;;;;;4985881;28;20086;-81
2023/09/09 06:15:51;;;;;;;2.35;2.25;;;;;;;;;;5000348;28;20049;-80
2023/09/09 06:18:17;;;;;;;3.25;3.05;;;;;;;;;;5001259;28;20030;-80
2023/09/09 06:20:47;;;;;;;3.20;3.00;;;;;;;;;;4999583;28;20393;-79
2023/09/09 06:23:14;;;;;;;2.90;2.70;;;;;;;;;;5001211;28;20014;-80
2023/09/09 06:25:40;;;;;;;3.00;2.80;;;;;;;;;;4982587;28;20023;-80
2023/09/09 06:28:07;;;;;;;2.70;2.50;;;;;;;;;;4980532;28;20030;-80
2023/09/09 06:30:34;;;;;;;2.63;2.42;;;;;;;;;;4980264;28;20358;-80
2023/09/09 06:33:00;;;;;;;2.67;2.47;;;;;;;;;;4980731;28;20121;-80
2023/09/09 06:35:26;;;;;;;2.78;2.58;;;;;;;;;;4983546;28;20027;-79
2023/09/09 06:37:52;;;;;;;2.97;2.78;;;;;;;;;;4976924;28;20106;-79
2023/09/09 06:40:18;;;;;;;3.45;3.20;;;;;;;;;;4988794;28;20086;-80
2023/09/09 06:42:44;;;;;;;3.88;3.58;;;;;;;;;;4977791;28;20027;-81
2023/09/09 06:45:12;;;;;;;4.30;4.00;;;;;;;;;;4992256;28;20033;-79
2023/09/09 06:47:38;;;;;;;4.03;3.72;;;;;;;;;;5001235;28;20033;-80
2023/09/09 06:50:05;;;;;;;4.22;3.92;;;;;;;;;;5001174;28;20022;-80
2023/09/09 06:52:31;;;;;;;4.05;3.75;;;;;;;;;;5000990;28;20031;-80
2023/09/09 06:54:57;;;;;;;5.78;5.28;;;;;;;;;;5001550;28;20030;-80
2023/09/09 06:57:23;;;;;;;5.30;4.80;;;;;;;;;;5001955;28;20079;-80
2023/09/09 06:59:50;;;;;;;5.20;4.80;;;;;;;;;;5000840;28;20014;-81
2023/09/09 07:02:16;;;;;;;5.70;5.20;;;;;;;;;;5001448;28;20025;-80
2023/09/09 07:04:43;;;;;;;5.00;4.60;;;;;;;;;;4998743;28;20061;-81
2023/09/09 07:07:09;;;;;;;5.70;5.28;;;;;;;;;;4994758;28;20094;-80
2023/09/09 07:09:35;;;;;;;5.13;4.72;;;;;;;;;;5001052;28;20022;-80
2023/09/09 07:12:02;;;;;;;5.07;4.68;;;;;;;;;;5005323;28;20019;-81
2023/09/09 07:14:28;;;;;;;5.45;4.85;;;;;;;;;;4988929;28;20109;-81
2023/09/09 07:16:54;;;;;;;8.25;7.45;;;;;;;;;;5003116;28;20445;-81
2023/09/09 07:19:21;;;;;;;8.73;7.57;;;;;;;;;;5000540;28;20030;-81
2023/09/09 07:21:47;;;;;;;10.00;7.80;;;;;;;;;;5000869;28;20046;-80
2023/09/09 07:24:13;;;;;;;8.80;8.00;;;;;;;;;;5007381;28;20022;-81
2023/09/09 07:26:39;;;;;;;8.18;7.45;;;;;;;;;;5008913;28;20030;-80
2023/09/09 07:29:05;;;;;;;8.75;7.95;;;;;;;;;;5009359;28;20026;-80
2023/09/09 07:31:31;;;;;;;9.85;8.85;;;;;;;;;;5011216;28;20035;-80
2023/09/09 07:33:57;;;;;;;10.60;9.50;;;;;;;;;;5008171;28;20038;-80
2023/09/09 07:36:23;;;;;;;8.43;7.72;;;;;;;;;;4989978;28;20046;-80
2023/09/09 07:38:51;;;;;;;9.05;8.15;;;;;;;;;;4991551;28;20029;-80
2023/09/09 07:41:17;;;;;;;8.60;7.80;;;;;;;;;;4997260;28;20023;-81
2023/09/09 07:43:44;;;;;;;7.75;7.05;;;;;;;;;;5007710;28;20030;-80
2023/09/09 07:46:10;;;;;;;10.27;9.25;;;;;;;;;;5025883;28;20049;-80
2023/09/09 07:48:36;;;;;;;11.45;10.35;;;;;;;;;;5009249;28;20505;-79
2023/09/09 07:51:02;;;;;;;9.10;8.25;;;;;;;;;;5007723;28;20022;-80
2023/09/09 07:53:28;;;;;;;9.20;8.30;;;;;;;;;;5010110;28;20027;-82
2023/09/09 07:55:55;;;;;;;8.43;7.72;;;;;;;;;;4995957;28;20031;-79
2023/09/09 07:58:21;;;;;;;8.30;7.50;;;;;;;;;;4991739;28;20047;-80
2023/09/09 08:00:47;;;;;;;8.63;7.82;;;;;;;;;;5010177;23;20496;-79
2023/09/09 08:03:13;;;;;;;7.93;7.13;;;;;;;;;;5013052;28;20034;-79
2023/09/09 08:05:48;;;;;;;7.50;6.85;;;;;;;;;;5005977;28;20027;-78
2023/09/09 08:08:14;;;;;;;6.90;6.30;;;;;;;;;;4995556;28;20511;-80
2023/09/09 08:10:41;;;;;;;6.97;6.38;;;;;;;;;;4987676;28;20027;-80
2023/09/09 08:13:07;;;;;;;7.90;7.20;;;;;;;;;;4998746;28;20092;-79
2023/09/09 08:15:33;;;;;;;7.40;6.70;;;;;;;;;;4999369;28;20034;-82
2023/09/09 08:17:59;;;;;;;7.70;7.10;;;;;;;;;;4999835;28;20022;-81
2023/09/09 08:20:25;;;;;;;7.00;6.40;;;;;;;;;;4999127;28;20024;-79
2023/09/09 08:22:51;;;;;;;6.63;6.13;;;;;;;;;;5000727;28;20023;-80
2023/09/09 08:25:17;;;;;;;5.90;5.45;;;;;;;;;;4994489;28;20125;-79
2023/09/09 08:27:43;;;;;;;5.45;5.05;;;;;;;;;;4993447;28;20034;-82
2023/09/09 08:30:10;;;;;;;5.80;5.30;;;;;;;;;;4999210;28;20030;-80
2023/09/09 08:32:44;;;;;;;5.30;4.90;;;;;;;;;;5000840;28;20034;-83
2023/09/09 08:35:19;;;;;;;4.63;4.32;;;;;;;;;;5017743;28;20033;-80
2023/09/09 08:37:46;;;;;;;5.15;4.75;;;;;;;;;;5001844;28;20026;-78
2023/09/09 08:40:12;;;;;;;4.80;4.50;;;;;;;;;;4995985;28;20038;-79
2023/09/09 08:42:55;;;;;;;5.20;4.90;;;;;;;;;;4996514;28;20022;-79
2023/09/09 08:45:24;;;;;;;5.95;5.45;;;;;;;;;;4996064;28;20033;-79
2023/09/09 08:47:51;;;;;;;5.47;5.07;;;;;;;;;;4994952;28;20034;-78
2023/09/09 08:50:18;;;;;;;6.95;6.35;;;;;;;;;;4999306;28;20030;-80
2023/09/09 08:52:44;;;;;;;7.25;6.65;;;;;;;;;;5000234;28;20393;-81
2023/09/09 08:55:10;;;;;;;7.32;6.70;;;;;;;;;;4998973;28;20022;-80
2023/09/09 08:57:37;;;;;;;7.10;6.40;;;;;;;;;;4988999;28;20034;-81
2023/09/09 09:00:06;;;;;;;6.15;5.70;;;;;;;;;;4986014;28;20031;-80
2023/09/09 09:02:34;;;;;;;7.35;6.72;;;;;;;;;;5013512;28;20019;-81
2023/09/09 09:05:00;;;;;;;7.88;7.28;;;;;;;;;;5008606;28;20029;-80
2023/09/09 09:07:27;;;;;;;8.10;7.40;;;;;;;;;;4992500;28;20046;-81
2023/09/09 09:09:57;;;;;;;7.35;6.75;;;;;;;;;;4985531;28;20130;-80
2023/09/09 09:12:24;;;;;;;7.50;6.80;;;;;;;;;;5003261;28;20444;-82
2023/09/09 09:14:50;;;;;;;7.65;7.05;;;;;;;;;;5004106;28;20030;-81
2023/09/09 09:17:17;;;;;;;7.97;7.28;;;;;;;;;;4995415;28;20031;-81
2023/09/09 09:19:43;;;;;;;8.73;7.82;;;;;;;;;;4984022;28;20023;-80
2023/09/09 09:22:11;;;;;;;9.02;8.23;;;;;;;;;;4983905;28;20027;-80
2023/09/09 09:24:42;;;;;;;9.90;9.00;;;;;;;;;;4983474;28;20323;-79
2023/09/09 09:27:15;;;;;;;9.77;8.85;;;;;;;;;;4988510;28;20037;-81
2023/09/09 09:29:42;;;;;;;9.98;9.07;;;;;;;;;;5002479;28;20030;-80
2023/09/09 09:32:12;;;;;;;8.98;8.13;;;;;;;;;;5009689;28;20342;-79
2023/09/09 09:34:38;;;;;;;8.65;7.95;;;;;;;;;;5002167;28;20122;-80
2023/09/09 09:37:17;;;;;;;8.40;7.70;;;;;;;;;;5002694;28;20045;-81
2023/09/09 09:39:45;;;;;;;7.97;7.28;;;;;;;;;;5001027;28;20109;-81
2023/09/09 09:42:12;;;;;;;8.05;7.35;;;;;;;;;;4995894;28;20390;-79
2023/09/09 09:44:38;;;;;;;7.90;7.22;;;;;;;;;;5001812;28;20077;-80
2023/09/09 09:47:05;;;;;;;8.20;7.40;;;;;;;;;;4996716;28;20057;-79
2023/09/09 09:49:44;;;;;;;7.63;7.03;;;;;;;;;;4991932;28;20035;-78
2023/09/09 09:52:10;;;;;;;7.63;7.00;;;;;;;;;;5002110;28;20440;-81
2023/09/09 09:54:38;;;;;;;7.38;6.80;;;;;;;;;;5001835;28;20035;-80
2023/09/09 09:57:05;;;;;;;7.05;6.45;;;;;;;;;;5000867;28;20441;-81
2023/09/09 09:59:32;;;;;;;7.00;6.40;;;;;;;;;;5001218;28;20568;-80
2023/09/09 10:01:59;;;;;;;8.60;7.93;;;;;;;;;;5002376;28;20030;-79
2023/09/09 10:04:27;;;;;;;8.30;7.50;;;;;;;;;;4999958;28;20153;-80
2023/09/09 10:06:56;;;;;;;8.15;7.38;;;;;;;;;;4996121;28;20034;-81
2023/09/09 10:09:34;;;;;;;7.80;7.20;;;;;;;;;;4979948;28;20027;-81
2023/09/09 10:12:06;;;;;;;7.82;7.18;;;;;;;;;;5005943;28;20045;-80
2023/09/09 10:14:35;;;;;;;7.80;7.13;;;;;;;;;;4999669;28;20022;-80
2023/09/09 10:17:04;;;;;;;7.47;6.88;;;;;;;;;;4995230;28;20030;-80
2023/09/09 10:19:31;;;;;;;7.78;7.15;;;;;;;;;;4979888;28;20215;-80
2023/09/09 10:21:58;;;;;;;9.15;8.45;;;;;;;;;;4982079;28;20026;-79
2023/09/09 10:24:25;;;;;;;7.25;6.65;;;;;;;;;;4982513;28;20038;-80
2023/09/09 10:26:52;;;;;;;8.02;7.32;;;;;;;;;;4985120;28;20046;-80
2023/09/09 10:29:18;;;;;;;6.85;6.35;;;;;;;;;;5000308;28;20046;-80
2023/09/09 10:31:45;;;;;;;8.00;7.30;;;;;;;;;;4999822;28;20082;-79
2023/09/09 10:34:11;;;;;;;8.57;7.78;;;;;;;;;;4998764;28;20049;-81
2023/09/09 10:36:38;;;;;;;8.52;7.80;;;;;;;;;;5001337;28;20061;-81
2023/09/09 10:39:04;;;;;;;8.45;7.65;;;;;;;;;;4991236;28;20039;-80
2023/09/09 10:41:31;;;;;;;8.48;7.78;;;;;;;;;;5000650;28;20029;-79
2023/09/09 10:43:57;;;;;;;8.48;7.72;;;;;;;;;;5000762;28;20089;-81
2023/09/09 10:46:39;;;;;;;8.13;7.53;;;;;;;;;;5000711;28;20046;-82
2023/09/09 10:49:06;;;;;;;7.25;6.65;;;;;;;;;;4981372;28;20443;-80
2023/09/09 10:51:45;;;;;;;7.60;6.88;;;;;;;;;;4982178;28;20019;-81
2023/09/09 10:54:14;;;;;;;7.03;6.47;;;;;;;;;;4981017;28;20031;-81
2023/09/09 10:56:51;;;;;;;7.18;6.68;;;;;;;;;;4982720;28;20120;-80
2023/09/09 10:59:19;;;;;;;8.18;7.47;;;;;;;;;;5010093;28;20026;-82
2023/09/09 11:01:48;;;;;;;8.15;7.47;;;;;;;;;;5016831;28;20101;-84
2023/09/09 11:04:23;;;;;;;7.90;7.22;;;;;;;;;;5012793;28;20058;-80
2023/09/09 11:07:13;;;;;;;8.27;7.53;;;;;;;;;;5002866;28;20030;-80
2023/09/09 11:09:39;;;;;;;8.25;7.55;;;;;;;;;;5001481;28;20049;-80
2023/09/09 11:12:15;;;;;;;8.25;7.53;;;;;;;;;;5017226;28;20282;-80
2023/09/09 11:14:45;;;;;;;9.65;8.85;;;;;;;;;;5002518;28;20034;-80
2023/09/09 11:17:13;;;;;;;7.70;7.10;;;;;;;;;;4996806;28;20482;-79
2023/09/09 11:19:40;;;;;;;8.63;7.82;;;;;;;;;;4990462;28;20084;-79
2023/09/09 11:22:07;;;;;;;8.88;7.97;;;;;;;;;;5001295;28;20097;-79
2023/09/09 11:24:34;;;;;;;8.25;7.63;;;;;;;;;;5001577;28;20421;-80
2023/09/09 11:27:01;;;;;;;8.50;7.80;;;;;;;;;;5000013;28;20030;-80
2023/09/09 11:29:28;;;;;;;8.93;8.23;;;;;;;;;;5001002;28;20038;-78
2023/09/09 11:31:54;;;;;;;8.65;7.95;;;;;;;;;;5000039;28;20057;-80
2023/09/09 11:34:33;;;;;;;9.02;8.23;;;;;;;;;;4992191;28;20034;-81
2023/09/09 11:37:02;;;;;;;9.05;8.25;;;;;;;;;;4986569;28;20386;-81
2023/09/09 11:39:29;;;;;;;8.60;7.90;;;;;;;;;;4983615;28;20031;-81
2023/09/09 11:41:56;;;;;;;8.43;7.75;;;;;;;;;;5017597;28;20022;-84
2023/09/09 11:44:22;;;;;;;9.20;8.32;;;;;;;;;;4998328;28;20089;-80
2023/09/09 11:46:49;;;;;;;8.68;7.90;;;;;;;;;;4980309;28;20027;-78
2023/09/09 11:49:16;;;;;;;8.07;7.35;;;;;;;;;;4980990;28;20019;-79
2023/09/09 11:51:43;;;;;;;8.13;7.38;;;;;;;;;;4995108;28;20031;-79
2023/09/09 11:54:10;;;;;;;7.78;6.97;;;;;;;;;;4981714;28;20122;-81
2023/09/09 11:56:36;;;;;;;8.63;7.68;;;;;;;;;;4980222;28;20356;-78
2023/09/09 11:59:09;;;;;;;8.45;7.75;;;;;;;;;;4982690;28;20430;-79
2023/09/09 12:01:45;;;;;;;7.70;7.10;;;;;;;;;;4991234;28;20079;-78
2023/09/09 12:04:14;;;;;;;7.38;6.80;;;;;;;;;;4995263;28;20034;-78
2023/09/09 12:06:42;;;;;;;8.05;7.20;;;;;;;;;;4994088;28;20030;-78
2023/09/09 12:09:09;;;;;;;7.32;6.78;;;;;;;;;;4978924;28;20030;-78
2023/09/09 12:11:35;;;;;;;6.80;6.30;;;;;;;;;;4978975;28;20497;-78
2023/09/09 12:14:01;;;;;;;7.57;6.93;;;;;;;;;;4981123;28;20547;-78
2023/09/09 12:16:31;;;;;;;7.55;6.95;;;;;;;;;;4981898;28;20030;-78
2023/09/09 12:18:57;;;;;;;7.07;6.47;;;;;;;;;;4981183;28;20023;-78
2023/09/09 12:21:23;;;;;;;7.45;6.80;;;;;;;;;;4978868;28;20034;-78
2023/09/09 12:23:49;;;;;;;7.70;7.10;;;;;;;;;;4998234;28;20027;-78
2023/09/09 12:26:17;;;;;;;7.22;6.68;;;;;;;;;;4999968;28;20053;-78
2023/09/09 12:28:44;;;;;;;7.63;6.93;;;;;;;;;;4999718;28;20029;-78
2023/09/09 12:31:11;;;;;;;7.53;6.85;;;;;;;;;;4999348;28;20022;-77
2023/09/09 12:33:42;;;;;;;7.45;6.85;;;;;;;;;;4999716;28;20465;-79
2023/09/09 12:36:21;;;;;;;7.50;6.90;;;;;;;;;;5005238;28;20026;-77
2023/09/09 12:38:49;;;;;;;7.43;6.82;;;;;;;;;;5015004;28;20026;-77
2023/09/09 12:41:18;;;;;;;7.50;6.85;;;;;;;;;;5015753;28;20022;-80
2023/09/09 12:43:46;;;;;;;7.97;7.28;;;;;;;;;;5024735;28;20018;-79
2023/09/09 12:46:13;;;;;;;7.35;6.65;;;;;;;;;;5028314;28;20029;-79
2023/09/09 12:48:52;;;;;;;7.05;6.55;;;;;;;;;;5031042;28;20027;-78
2023/09/09 12:51:19;;;;;;;7.72;7.07;;;;;;;;;;5018734;28;20031;-78
2023/09/09 12:53:45;;;;;;;7.95;6.70;;;;;;;;;;4996749;28;20103;-78
2023/09/09 12:56:12;;;;;;;6.53;6.03;;;;;;;;;;4994110;28;20091;-80
2023/09/09 12:58:38;;;;;;;6.15;5.75;;;;;;;;;;4997268;28;20022;-79
2023/09/09 13:01:05;;;;;;;6.97;6.47;;;;;;;;;;5009233;28;20046;-79
2023/09/09 13:03:31;;;;;;;7.28;6.57;;;;;;;;;;5000187;28;20019;-79
2023/09/09 13:05:57;;;;;;;6.60;6.07;;;;;;;;;;5015528;28;20022;-78
2023/09/09 13:08:24;;;;;;;7.40;6.70;;;;;;;;;;5016904;28;20080;-79
2023/09/09 13:10:50;;;;;;;7.57;6.88;;;;;;;;;;5009054;28;20026;-79
2023/09/09 13:13:19;;;;;;;7.68;6.97;;;;;;;;;;5017095;28;20439;-79
2023/09/09 13:15:46;;;;;;;7.70;7.00;;;;;;;;;;5005947;28;20042;-78
2023/09/09 13:18:12;;;;;;;7.07;6.47;;;;;;;;;;5006018;28;20137;-78
2023/09/09 13:20:39;;;;;;;6.28;5.78;;;;;;;;;;5005734;28;20022;-79
2023/09/09 13:23:05;;;;;;;6.72;6.22;;;;;;;;;;5007646;28;20030;-79
2023/09/09 13:25:31;;;;;;;5.93;5.53;;;;;;;;;;5009408;28;20050;-78
2023/09/09 13:27:59;;;;;;;6.57;6.07;;;;;;;;;;5009046;28;20213;-78
2023/09/09 13:30:25;;;;;;;7.22;6.63;;;;;;;;;;5008586;28;20026;-77
2023/09/09 13:32:51;;;;;;;7.00;6.32;;;;;;;;;;4999839;28;20117;-79
2023/09/09 13:35:17;;;;;;;6.57;6.07;;;;;;;;;;4988573;28;20032;-80
2023/09/09 13:37:43;;;;;;;6.55;6.05;;;;;;;;;;4994913;28;20368;-78
2023/09/09 13:40:09;;;;;;;7.78;6.97;;;;;;;;;;4994431;28;20051;-79
2023/09/09 13:42:35;;;;;;;7.43;6.82;;;;;;;;;;4987383;28;20031;-79
2023/09/09 13:45:01;;;;;;;6.53;6.03;;;;;;;;;;5003973;28;20026;-79
2023/09/09 13:47:27;;;;;;;6.25;5.75;;;;;;;;;;5012945;28;20132;-78
2023/09/09 13:49:54;;;;;;;7.28;6.68;;;;;;;;;;5013984;28;20030;-78
2023/09/09 13:52:20;;;;;;;7.10;6.40;;;;;;;;;;5012381;28;20030;-80
2023/09/09 13:54:46;;;;;;;7.10;6.40;;;;;;;;;;4984072;28;20378;-79
2023/09/09 13:57:12;;;;;;;7.13;6.53;;;;;;;;;;4986801;28;20086;-79
2023/09/09 13:59:39;;;;;;;7.20;6.60;;;;;;;;;;4993144;28;20054;-79
2023/09/09 14:02:05;;;;;;;6.80;6.20;;;;;;;;;;5030405;28;20023;-80
2023/09/09 14:04:31;;;;;;;7.25;6.65;;;;;;;;;;5014042;28;20041;-77
2023/09/09 14:06:57;;;;;;;6.93;6.32;;;;;;;;;;4997266;28;20464;-80
2023/09/09 14:09:26;;;;;;;6.60;6.00;;;;;;;;;;4995678;28;20038;-79
2023/09/09 14:11:52;;;;;;;6.95;6.45;;;;;;;;;;4996012;28;20029;-78
2023/09/09 14:14:18;;;;;;;7.50;6.72;;;;;;;;;;4996469;28;20041;-79
2023/09/09 14:16:45;;;;;;;7.28;6.68;;;;;;;;;;4998958;28;20035;-78
2023/09/09 14:19:11;;;;;;;6.22;5.72;;;;;;;;;;4997273;28;20034;-78
2023/09/09 14:21:37;;;;;;;6.78;6.18;;;;;;;;;;4997545;28;20046;-79
2023/09/09 14:24:03;;;;;;;6.63;6.05;;;;;;;;;;4998810;28;20287;-78
2023/09/09 14:26:30;;;;;;;6.13;5.63;;;;;;;;;;4996565;28;20026;-78
2023/09/09 14:28:56;;;;;;;7.07;6.38;;;;;;;;;;4995497;28;20011;-80
2023/09/09 14:31:25;;;;;;;7.10;6.50;;;;;;;;;;5011418;28;20038;-77
2023/09/09 14:33:51;;;;;;;6.20;5.70;;;;;;;;;;5013294;28;20026;-79
2023/09/09 14:36:17;;;;;;;6.68;6.18;;;;;;;;;;5015548;28;20037;-78
2023/09/09 14:38:44;;;;;;;6.22;5.72;;;;;;;;;;5015602;28;20018;-80
2023/09/09 14:41:10;;;;;;;6.65;6.07;;;;;;;;;;5015608;28;20049;-79
2023/09/09 14:43:36;;;;;;;7.22;6.40;;;;;;;;;;5007763;28;20128;-79
2023/09/09 14:46:02;;;;;;;6.13;5.63;;;;;;;;;;4995907;28;20023;-79